createdAt,value
2022-12-15T00:00:11.642Z,4.00
2022-12-15T00:01:11.525Z,4.00
2022-12-15T00:02:11.420Z,4.00
2022-12-15T00:03:11.393Z,4.00
2022-12-15T00:04:11.179Z,4.00
2022-12-15T00:05:11.126Z,4.00
2022-12-15T00:06:11.053Z,4.00
2022-12-15T00:07:10.940Z,4.00
2022-12-15T00:08:10.877Z,4.00
2022-12-15T00:09:14.280Z,4.00
2022-12-15T00:10:10.710Z,4.00
2022-12-15T00:11:10.661Z,4.00
2022-12-15T00:12:10.612Z,4.00
2022-12-15T00:13:10.505Z,4.00
2022-12-15T00:14:10.422Z,4.00
2022-12-15T00:15:10.416Z,4.00
2022-12-15T00:16:10.417Z,4.00
2022-12-15T00:17:10.356Z,4.00
2022-12-15T00:18:10.130Z,4.00
2022-12-15T00:19:10.019Z,4.00
2022-12-15T00:20:09.999Z,4.00
2022-12-15T00:21:09.874Z,4.00
2022-12-15T00:22:09.824Z,4.00
2022-12-15T00:23:09.730Z,4.00
2022-12-15T00:24:09.729Z,4.00
2022-12-15T00:25:09.691Z,4.00
2022-12-15T00:26:09.522Z,4.00
2022-12-15T00:27:09.410Z,4.00
2022-12-15T00:28:09.325Z,4.00
2022-12-15T00:29:09.274Z,4.00
2022-12-15T00:30:09.209Z,4.00
2022-12-15T00:31:09.177Z,4.00
2022-12-15T00:32:09.066Z,4.00
2022-12-15T00:33:08.944Z,4.00
2022-12-15T00:34:08.872Z,4.00
2022-12-15T00:35:08.875Z,4.00
2022-12-15T00:36:08.806Z,4.00
2022-12-15T00:37:08.701Z,4.00
2022-12-15T00:38:08.617Z,4.00
2022-12-15T00:39:08.507Z,4.00
2022-12-15T00:40:08.404Z,4.00
2022-12-15T00:41:08.366Z,4.00
2022-12-15T00:42:08.251Z,4.00
2022-12-15T00:43:08.230Z,4.00
2022-12-15T00:44:08.215Z,4.00
2022-12-15T00:45:08.035Z,4.00
2022-12-15T00:46:08.084Z,4.00
2022-12-15T00:47:07.948Z,4.00
2022-12-15T00:48:07.805Z,4.00
2022-12-15T00:49:07.721Z,4.00
2022-12-15T00:50:07.646Z,4.00
2022-12-15T00:51:07.580Z,4.00
2022-12-15T00:52:07.737Z,4.00
2022-12-15T00:53:07.411Z,4.00
2022-12-15T00:54:07.368Z,4.00
2022-12-15T00:55:07.310Z,4.00
2022-12-15T00:56:07.176Z,0.00
2022-12-15T00:57:07.086Z,0.00
2022-12-15T00:58:07.262Z,0.00
2022-12-15T00:59:06.945Z,0.00
2022-12-15T01:00:06.927Z,0.00
2022-12-15T01:01:06.809Z,0.00
2022-12-15T01:02:06.889Z,0.00
2022-12-15T01:03:06.852Z,0.00
2022-12-15T01:04:06.648Z,0.00
2022-12-15T01:05:06.487Z,0.00
2022-12-15T01:06:06.689Z,0.00
2022-12-15T01:07:06.351Z,0.00
2022-12-15T01:08:07.742Z,0.00
2022-12-15T01:09:06.198Z,0.00
2022-12-15T01:10:06.108Z,0.00
2022-12-15T01:11:06.079Z,0.00
2022-12-15T01:12:05.957Z,0.00
2022-12-15T01:13:05.857Z,0.00
2022-12-15T01:14:05.773Z,0.00
2022-12-15T01:15:05.713Z,0.00
2022-12-15T01:16:05.677Z,0.00
2022-12-15T01:17:05.582Z,0.00
2022-12-15T01:18:05.499Z,0.00
2022-12-15T01:19:05.454Z,0.00
2022-12-15T01:20:05.319Z,0.00
2022-12-15T01:21:05.239Z,0.00
2022-12-15T01:22:05.164Z,0.00
2022-12-15T01:23:05.126Z,0.00
2022-12-15T01:24:05.031Z,0.00
2022-12-15T01:25:04.955Z,0.00
2022-12-15T01:26:04.874Z,0.00
2022-12-15T01:27:04.771Z,0.00
2022-12-15T01:28:04.762Z,0.00
2022-12-15T01:29:04.623Z,0.00
2022-12-15T01:30:04.584Z,0.00
2022-12-15T01:31:04.547Z,0.00
2022-12-15T01:32:04.403Z,0.00
2022-12-15T01:33:04.376Z,0.00
2022-12-15T01:34:04.276Z,0.00
2022-12-15T01:35:04.213Z,0.00
2022-12-15T01:36:04.094Z,0.00
2022-12-15T01:37:04.025Z,0.00
2022-12-15T01:38:03.950Z,0.00
2022-12-15T01:39:03.859Z,0.00
2022-12-15T01:40:03.765Z,0.00
2022-12-15T01:41:03.723Z,0.00
2022-12-15T01:42:03.624Z,0.00
2022-12-15T01:43:03.573Z,0.00
2022-12-15T01:44:03.479Z,0.00
2022-12-15T01:45:03.404Z,0.00
2022-12-15T01:46:03.337Z,0.00
2022-12-15T01:47:03.293Z,0.00
2022-12-15T01:48:03.149Z,0.00
2022-12-15T01:49:03.164Z,0.00
2022-12-15T01:50:02.994Z,0.00
2022-12-15T01:51:02.980Z,0.00
2022-12-15T01:52:02.861Z,0.00
2022-12-15T01:53:10.491Z,0.00
2022-12-15T01:55:08.262Z,0.00
2022-12-15T01:56:06.550Z,0.00
2022-12-15T01:58:11.522Z,0.00
2022-12-15T01:59:10.384Z,0.00
2022-12-15T02:01:14.338Z,0.00
2022-12-15T02:02:14.277Z,0.00
2022-12-15T02:03:14.159Z,0.00
2022-12-15T02:04:14.033Z,0.00
2022-12-15T02:05:13.939Z,0.00
2022-12-15T02:06:13.892Z,0.00
2022-12-15T02:07:13.791Z,0.00
2022-12-15T02:08:13.773Z,0.00
2022-12-15T02:09:13.622Z,0.00
2022-12-15T02:10:13.557Z,0.00
2022-12-15T02:11:13.493Z,0.00
2022-12-15T02:12:13.388Z,0.00
2022-12-15T02:13:13.313Z,0.00
2022-12-15T02:14:13.276Z,0.00
2022-12-15T02:15:13.443Z,0.00
2022-12-15T02:16:13.154Z,0.00
2022-12-15T02:17:13.065Z,0.00
2022-12-15T02:18:12.932Z,0.00
2022-12-15T02:19:12.865Z,0.00
2022-12-15T02:20:12.778Z,0.00
2022-12-15T02:21:12.705Z,0.00
2022-12-15T02:22:12.628Z,0.00
2022-12-15T02:23:12.545Z,0.00
2022-12-15T02:24:12.478Z,0.00
2022-12-15T02:25:12.422Z,0.00
2022-12-15T02:26:12.353Z,0.00
2022-12-15T02:27:12.248Z,0.00
2022-12-15T02:28:12.156Z,0.00
2022-12-15T02:29:12.131Z,0.00
2022-12-15T02:30:12.015Z,0.00
2022-12-15T02:31:11.999Z,0.00
2022-12-15T02:32:11.870Z,0.00
2022-12-15T02:33:11.832Z,0.00
2022-12-15T02:34:11.691Z,0.00
2022-12-15T02:35:11.648Z,0.00
2022-12-15T02:36:11.534Z,0.00
2022-12-15T02:37:11.661Z,0.00
2022-12-15T02:38:11.401Z,0.00
2022-12-15T02:39:11.322Z,0.00
2022-12-15T02:40:11.302Z,0.00
2022-12-15T02:41:11.258Z,0.00
2022-12-15T02:42:11.076Z,0.00
2022-12-15T02:43:11.019Z,0.00
2022-12-15T02:44:10.952Z,0.00
2022-12-15T02:45:10.852Z,0.00
2022-12-15T02:46:10.934Z,0.00
2022-12-15T02:47:10.695Z,0.00
2022-12-15T02:48:10.609Z,0.00
2022-12-15T02:49:10.568Z,0.00
2022-12-15T02:50:10.484Z,0.00
2022-12-15T02:51:10.390Z,0.00
2022-12-15T02:52:10.382Z,0.00
2022-12-15T02:53:10.309Z,0.00
2022-12-15T02:54:10.228Z,0.00
2022-12-15T02:55:10.109Z,0.00
2022-12-15T02:56:10.046Z,0.00
2022-12-15T02:57:09.945Z,0.00
2022-12-15T02:58:09.831Z,0.00
2022-12-15T02:59:09.770Z,0.00
2022-12-15T03:00:09.771Z,0.00
2022-12-15T03:01:09.687Z,0.00
2022-12-15T03:02:09.729Z,0.00
2022-12-15T03:03:09.520Z,0.00
2022-12-15T03:04:09.374Z,0.00
2022-12-15T03:05:09.289Z,0.00
2022-12-15T03:06:09.227Z,0.00
2022-12-15T03:07:09.144Z,0.00
2022-12-15T03:08:09.170Z,0.00
2022-12-15T03:09:08.991Z,0.00
2022-12-15T03:10:08.913Z,0.00
2022-12-15T03:11:08.910Z,0.00
2022-12-15T03:12:08.811Z,0.00
2022-12-15T03:13:08.694Z,0.00
2022-12-15T03:14:08.620Z,0.00
2022-12-15T03:15:08.574Z,0.00
2022-12-15T03:16:08.537Z,0.00
2022-12-15T03:17:08.419Z,0.00
2022-12-15T03:18:08.303Z,0.00
2022-12-15T03:19:08.312Z,0.00
2022-12-15T03:20:08.165Z,0.00
2022-12-15T03:21:08.133Z,0.00
2022-12-15T03:22:08.019Z,0.00
2022-12-15T03:23:07.948Z,0.00
2022-12-15T03:24:07.829Z,0.00
2022-12-15T03:25:07.751Z,0.00
2022-12-15T03:26:07.739Z,0.00
2022-12-15T03:27:07.655Z,0.00
2022-12-15T03:28:07.638Z,0.00
2022-12-15T03:29:07.498Z,0.00
2022-12-15T03:30:07.378Z,0.00
2022-12-15T03:31:07.320Z,0.00
2022-12-15T03:32:07.318Z,0.00
2022-12-15T03:33:07.203Z,0.00
2022-12-15T03:34:07.110Z,0.00
2022-12-15T03:35:07.050Z,0.00
2022-12-15T03:36:06.923Z,0.00
2022-12-15T03:37:06.839Z,0.00
2022-12-15T03:38:06.789Z,0.00
2022-12-15T03:39:06.694Z,0.00
2022-12-15T03:40:06.623Z,0.00
2022-12-15T03:41:06.527Z,0.00
2022-12-15T03:42:06.451Z,0.00
2022-12-15T03:43:06.388Z,0.00
2022-12-15T03:44:06.314Z,0.00
2022-12-15T03:45:06.257Z,0.00
2022-12-15T03:46:06.190Z,0.00
2022-12-15T03:47:06.102Z,0.00
2022-12-15T03:48:06.048Z,0.00
2022-12-15T03:49:05.968Z,0.00
2022-12-15T03:50:05.893Z,0.00
2022-12-15T03:51:05.772Z,0.00
2022-12-15T03:52:05.745Z,0.00
2022-12-15T03:53:05.622Z,0.00
2022-12-15T03:54:05.553Z,0.00
2022-12-15T03:55:05.482Z,0.00
2022-12-15T03:56:05.427Z,0.00
2022-12-15T03:57:05.324Z,0.00
2022-12-15T03:58:05.239Z,0.00
2022-12-15T03:59:05.171Z,0.00
2022-12-15T04:00:05.076Z,0.00
2022-12-15T04:01:05.046Z,0.00
2022-12-15T04:02:05.150Z,0.00
2022-12-15T04:03:04.917Z,0.00
2022-12-15T04:04:04.891Z,0.00
2022-12-15T04:05:04.762Z,0.00
2022-12-15T04:06:04.681Z,0.00
2022-12-15T04:07:04.571Z,0.00
2022-12-15T04:08:04.578Z,0.00
2022-12-15T04:09:04.405Z,0.00
2022-12-15T04:10:04.327Z,0.00
2022-12-15T04:11:04.272Z,0.00
2022-12-15T04:12:04.176Z,0.00
2022-12-15T04:13:04.110Z,0.00
2022-12-15T04:14:04.011Z,0.00
2022-12-15T04:15:03.951Z,0.00
2022-12-15T04:16:03.859Z,0.00
2022-12-15T04:17:03.965Z,0.00
2022-12-15T04:18:03.781Z,0.00
2022-12-15T04:19:03.675Z,0.00
2022-12-15T04:20:03.586Z,0.00
2022-12-15T04:21:03.502Z,0.00
2022-12-15T04:22:03.441Z,0.00
2022-12-15T04:23:03.318Z,0.00
2022-12-15T04:24:03.280Z,0.00
2022-12-15T04:25:03.166Z,0.00
2022-12-15T04:26:03.114Z,0.00
2022-12-15T04:27:03.042Z,0.00
2022-12-15T04:28:02.988Z,0.00
2022-12-15T04:29:02.875Z,0.00
2022-12-15T04:30:02.797Z,0.00
2022-12-15T04:31:02.847Z,0.00
2022-12-15T04:32:02.643Z,0.00
2022-12-15T04:33:02.590Z,0.00
2022-12-15T04:34:02.477Z,0.00
2022-12-15T04:35:02.481Z,0.00
2022-12-15T04:36:02.324Z,0.00
2022-12-15T04:37:02.340Z,0.00
2022-12-15T04:38:02.193Z,0.00
2022-12-15T04:39:02.121Z,0.00
2022-12-15T04:40:02.021Z,0.00
2022-12-15T04:41:01.967Z,0.00
2022-12-15T04:42:01.880Z,0.00
2022-12-15T04:43:01.872Z,0.00
2022-12-15T04:44:01.838Z,0.00
2022-12-15T04:45:01.655Z,0.00
2022-12-15T04:46:01.607Z,0.00
2022-12-15T04:47:01.503Z,0.00
2022-12-15T04:48:01.422Z,0.00
2022-12-15T04:49:01.347Z,0.00
2022-12-15T04:50:01.256Z,0.00
2022-12-15T04:51:01.183Z,0.00
2022-12-15T04:52:01.204Z,0.00
2022-12-15T04:53:01.050Z,0.00
2022-12-15T04:54:00.964Z,0.00
2022-12-15T04:55:00.902Z,0.00
2022-12-15T04:56:00.793Z,0.00
2022-12-15T04:57:00.752Z,0.00
2022-12-15T04:58:00.647Z,0.00
2022-12-15T04:59:00.612Z,0.00
2022-12-15T05:00:00.510Z,0.00
2022-12-15T05:01:00.531Z,0.00
2022-12-15T05:02:00.503Z,0.00
2022-12-15T05:03:00.266Z,0.00
2022-12-15T05:04:00.329Z,0.00
2022-12-15T05:05:00.143Z,0.00
2022-12-15T05:06:00.033Z,0.00
2022-12-15T05:06:59.992Z,0.00
2022-12-15T05:08:00.016Z,0.00
2022-12-15T05:08:59.858Z,0.00
2022-12-15T05:10:03.303Z,0.00
2022-12-15T05:10:59.654Z,0.00
2022-12-15T05:11:59.604Z,0.00
2022-12-15T05:12:59.501Z,0.00
2022-12-15T05:13:59.432Z,0.00
2022-12-15T05:14:59.348Z,0.00
2022-12-15T05:15:59.364Z,0.00
2022-12-15T05:16:59.247Z,0.00
2022-12-15T05:17:59.135Z,0.00
2022-12-15T05:18:59.101Z,0.00
2022-12-15T05:19:59.034Z,0.00
2022-12-15T05:20:59.020Z,0.00
2022-12-15T05:21:58.860Z,0.00
2022-12-15T05:22:58.827Z,0.00
2022-12-15T05:23:58.670Z,0.00
2022-12-15T05:24:58.619Z,0.00
2022-12-15T05:25:58.500Z,0.00
2022-12-15T05:26:58.448Z,0.00
2022-12-15T05:27:58.378Z,0.00
2022-12-15T05:28:58.278Z,0.00
2022-12-15T05:29:58.246Z,0.00
2022-12-15T05:30:58.186Z,0.00
2022-12-15T05:31:58.043Z,0.00
2022-12-15T05:32:57.977Z,0.00
2022-12-15T05:34:04.516Z,0.00
2022-12-15T05:34:57.821Z,0.00
2022-12-15T05:35:57.763Z,0.00
2022-12-15T05:36:57.718Z,0.00
2022-12-15T05:37:57.587Z,0.00
2022-12-15T05:38:57.531Z,0.00
2022-12-15T05:39:57.449Z,0.00
2022-12-15T05:40:57.357Z,0.00
2022-12-15T05:41:57.329Z,0.00
2022-12-15T05:42:57.287Z,0.00
2022-12-15T05:43:57.142Z,0.00
2022-12-15T05:44:57.056Z,0.00
2022-12-15T05:45:57.045Z,0.00
2022-12-15T05:46:56.923Z,0.00
2022-12-15T05:47:56.965Z,0.00
2022-12-15T05:48:56.761Z,0.00
2022-12-15T05:49:56.687Z,0.00
2022-12-15T05:50:56.650Z,0.00
2022-12-15T05:51:56.527Z,0.00
2022-12-15T05:52:56.483Z,0.00
2022-12-15T05:53:56.390Z,0.00
2022-12-15T05:54:56.325Z,0.00
2022-12-15T05:55:56.225Z,0.00
2022-12-15T05:56:56.137Z,0.00
2022-12-15T05:57:56.068Z,0.00
2022-12-15T05:58:56.130Z,0.00
2022-12-15T05:59:55.989Z,0.00
2022-12-15T06:00:55.837Z,0.00
2022-12-15T06:01:55.908Z,0.00
2022-12-15T06:02:55.721Z,0.00
2022-12-15T06:03:55.615Z,0.00
2022-12-15T06:04:55.607Z,0.00
2022-12-15T06:05:56.725Z,0.00
2022-12-15T06:06:55.422Z,0.00
2022-12-15T06:07:55.332Z,0.00
2022-12-15T06:08:55.269Z,0.00
2022-12-15T06:09:55.161Z,0.00
2022-12-15T06:10:55.124Z,0.00
2022-12-15T06:11:55.036Z,0.00
2022-12-15T06:12:55.060Z,0.00
2022-12-15T06:13:55.057Z,0.00
2022-12-15T06:14:54.956Z,0.00
2022-12-15T06:15:54.758Z,0.00
2022-12-15T06:16:54.698Z,0.00
2022-12-15T06:17:54.590Z,0.00
2022-12-15T06:18:54.547Z,0.00
2022-12-15T06:19:54.408Z,0.00
2022-12-15T06:20:54.351Z,0.00
2022-12-15T06:21:54.296Z,0.00
2022-12-15T06:22:54.159Z,0.00
2022-12-15T06:23:54.199Z,0.00
2022-12-15T06:24:54.069Z,0.00
2022-12-15T06:25:54.011Z,0.00
2022-12-15T06:26:53.853Z,0.00
2022-12-15T06:27:58.354Z,0.00
2022-12-15T06:28:53.721Z,0.00
2022-12-15T06:29:53.627Z,0.00
2022-12-15T06:30:53.611Z,0.00
2022-12-15T06:31:53.533Z,0.00
2022-12-15T06:32:53.424Z,0.00
2022-12-15T06:33:59.168Z,0.00
2022-12-15T06:34:53.280Z,0.00
2022-12-15T06:35:53.188Z,0.00
2022-12-15T06:36:53.224Z,4.00
2022-12-15T06:37:53.036Z,4.00
2022-12-15T06:38:52.979Z,0.00
2022-12-15T06:39:52.895Z,4.00
2022-12-15T06:40:52.835Z,4.00
2022-12-15T06:41:52.833Z,4.00
2022-12-15T06:42:52.695Z,4.00
2022-12-15T06:43:52.712Z,4.00
2022-12-15T06:44:52.510Z,8.00
2022-12-15T06:45:52.708Z,8.00
2022-12-15T06:46:52.457Z,8.00
2022-12-15T06:47:55.343Z,8.00
2022-12-15T06:48:52.192Z,12.00
2022-12-15T06:49:52.215Z,12.00
2022-12-15T06:50:52.034Z,16.00
2022-12-15T06:51:52.042Z,16.00
2022-12-15T06:52:52.065Z,16.00
2022-12-15T06:53:51.829Z,16.00
2022-12-15T06:54:51.757Z,24.00
2022-12-15T06:55:51.658Z,28.00
2022-12-15T06:56:51.656Z,32.00
2022-12-15T06:57:51.638Z,40.00
2022-12-15T06:58:51.693Z,52.00
2022-12-15T06:59:51.434Z,52.00
2022-12-15T07:00:51.337Z,60.00
2022-12-15T07:01:51.684Z,68.00
2022-12-15T07:02:51.349Z,76.00
2022-12-15T07:03:51.312Z,80.00
2022-12-15T07:04:51.063Z,92.00
2022-12-15T07:05:50.897Z,100.00
2022-12-15T07:06:50.882Z,108.00
2022-12-15T07:07:50.721Z,116.00
2022-12-15T07:08:50.789Z,124.00
2022-12-15T07:09:50.735Z,132.00
2022-12-15T07:10:50.554Z,144.00
2022-12-15T07:11:50.495Z,152.00
2022-12-15T07:12:50.341Z,160.00
2022-12-15T07:13:50.329Z,172.00
2022-12-15T07:14:53.514Z,180.00
2022-12-15T07:15:50.257Z,192.00
2022-12-15T07:16:50.064Z,208.00
2022-12-15T07:17:49.991Z,220.00
2022-12-15T07:18:49.940Z,232.00
2022-12-15T07:19:49.845Z,248.00
2022-12-15T07:20:49.860Z,260.00
2022-12-15T07:21:49.686Z,276.00
2022-12-15T07:22:49.776Z,292.00
2022-12-15T07:23:57.554Z,308.00
2022-12-15T07:24:49.471Z,320.00
2022-12-15T07:25:49.518Z,336.00
2022-12-15T07:26:49.329Z,348.00
2022-12-15T07:27:49.489Z,368.00
2022-12-15T07:28:49.141Z,384.00
2022-12-15T07:29:49.088Z,404.00
2022-12-15T07:30:49.056Z,424.00
2022-12-15T07:31:48.955Z,440.00
2022-12-15T07:32:50.259Z,460.00
2022-12-15T07:33:48.858Z,476.00
2022-12-15T07:34:48.665Z,496.00
2022-12-15T07:35:48.647Z,516.00
2022-12-15T07:36:52.061Z,540.00
2022-12-15T07:37:48.490Z,560.00
2022-12-15T07:38:50.771Z,580.00
2022-12-15T07:39:48.411Z,600.00
2022-12-15T07:40:48.261Z,624.00
2022-12-15T07:41:48.150Z,648.00
2022-12-15T07:42:48.141Z,672.00
2022-12-15T07:43:48.299Z,696.00
2022-12-15T07:44:49.996Z,720.00
2022-12-15T07:45:51.436Z,744.00
2022-12-15T07:46:47.760Z,768.00
2022-12-15T07:47:47.709Z,792.00
2022-12-15T07:48:50.297Z,820.00
2022-12-15T07:49:47.585Z,856.00
2022-12-15T07:50:47.473Z,904.00
2022-12-15T07:51:47.385Z,956.00
2022-12-15T07:52:47.427Z,1016.00
2022-12-15T07:53:47.212Z,1120.00
2022-12-15T07:54:47.175Z,1224.00
2022-12-15T07:56:06.359Z,1372.00
2022-12-15T07:56:50.518Z,1544.00
2022-12-15T07:57:46.919Z,1740.00
2022-12-15T07:58:46.875Z,1952.00
2022-12-15T07:59:46.780Z,2156.00
2022-12-15T08:00:48.929Z,2376.00
2022-12-15T08:01:46.974Z,2480.00
2022-12-15T08:02:46.813Z,2692.00
2022-12-15T08:03:46.757Z,2824.00
2022-12-15T08:04:46.485Z,3012.00
2022-12-15T08:05:46.322Z,3112.00
2022-12-15T08:06:46.350Z,3200.00
2022-12-15T08:07:46.217Z,3400.00
2022-12-15T08:08:50.571Z,3520.00
2022-12-15T08:09:46.023Z,3804.00
2022-12-15T08:10:45.955Z,4032.00
2022-12-15T08:11:45.909Z,4168.00
2022-12-15T08:12:45.841Z,4328.00
2022-12-15T08:14:02.944Z,4524.00
2022-12-15T08:14:45.814Z,4680.00
2022-12-15T08:15:45.655Z,4796.00
2022-12-15T08:16:45.611Z,4932.00
2022-12-15T08:17:45.443Z,5076.00
2022-12-15T08:18:45.332Z,5188.00
2022-12-15T08:19:45.364Z,5304.00
2022-12-15T08:20:45.350Z,5472.00
2022-12-15T08:21:45.127Z,5616.00
2022-12-15T08:22:45.065Z,5696.00
2022-12-15T08:23:45.015Z,5780.00
2022-12-15T08:24:44.939Z,5812.00
2022-12-15T08:25:44.827Z,5868.00
2022-12-15T08:26:44.791Z,5968.00
2022-12-15T08:27:44.774Z,6196.00
2022-12-15T08:28:44.622Z,6172.00
2022-12-15T08:29:52.588Z,6344.00
2022-12-15T08:30:44.489Z,6396.00
2022-12-15T08:31:44.586Z,6400.00
2022-12-15T08:32:51.600Z,6508.00
2022-12-15T08:33:44.277Z,6552.00
2022-12-15T08:34:44.247Z,6564.00
2022-12-15T08:35:56.450Z,6692.00
2022-12-15T08:36:44.082Z,6756.00
2022-12-15T08:37:43.988Z,6808.00
2022-12-15T08:38:43.969Z,6768.00
2022-12-15T08:39:43.888Z,6880.00
2022-12-15T08:40:43.882Z,6860.00
2022-12-15T08:41:43.679Z,6992.00
2022-12-15T08:42:43.682Z,7056.00
2022-12-15T08:43:48.667Z,7216.00
2022-12-15T08:44:43.523Z,7196.00
2022-12-15T08:45:43.540Z,7352.00
2022-12-15T08:46:43.374Z,7440.00
2022-12-15T08:47:43.314Z,7496.00
2022-12-15T08:48:43.390Z,7644.00
2022-12-15T08:49:43.152Z,7664.00
2022-12-15T08:50:43.133Z,7716.00
2022-12-15T08:51:43.019Z,7812.00
2022-12-15T08:53:00.672Z,7736.00
2022-12-15T08:53:43.237Z,7688.00
2022-12-15T08:54:42.849Z,7792.00
2022-12-15T08:55:42.764Z,7728.00
2022-12-15T08:56:42.679Z,7780.00
2022-12-15T08:57:42.599Z,7860.00
2022-12-15T08:58:42.534Z,7824.00
2022-12-15T08:59:42.570Z,7880.00
2022-12-15T09:00:42.455Z,7856.00
2022-12-15T09:01:42.477Z,7812.00
2022-12-15T09:02:42.370Z,7996.00
2022-12-15T09:03:42.228Z,7960.00
2022-12-15T09:04:42.176Z,8000.00
2022-12-15T09:05:42.268Z,8084.00
2022-12-15T09:06:42.007Z,8076.00
2022-12-15T09:07:42.035Z,8068.00
2022-12-15T09:08:41.842Z,8008.00
2022-12-15T09:09:42.037Z,8056.00
2022-12-15T09:10:43.075Z,7960.00
2022-12-15T09:11:41.763Z,7932.00
2022-12-15T09:12:41.630Z,7932.00
2022-12-15T09:13:41.684Z,7964.00
2022-12-15T09:14:41.669Z,7992.00
2022-12-15T09:16:08.332Z,7968.00
2022-12-15T09:16:41.384Z,7948.00
2022-12-15T09:17:41.259Z,7924.00
2022-12-15T09:18:41.364Z,7896.00
2022-12-15T09:19:41.147Z,7868.00
2022-12-15T09:20:41.032Z,7852.00
2022-12-15T09:21:40.970Z,7844.00
2022-12-15T09:22:40.933Z,7828.00
2022-12-15T09:23:40.871Z,7828.00
2022-12-15T09:24:40.796Z,7808.00
2022-12-15T09:25:40.834Z,7760.00
2022-12-15T09:26:40.636Z,7700.00
2022-12-15T09:27:40.766Z,7656.00
2022-12-15T09:28:40.552Z,7520.00
2022-12-15T09:29:40.473Z,7488.00
2022-12-15T09:30:40.474Z,7352.00
2022-12-15T09:31:40.336Z,7360.00
2022-12-15T09:32:40.301Z,7208.00
2022-12-15T09:33:40.255Z,7228.00
2022-12-15T09:34:40.191Z,6988.00
2022-12-15T09:35:40.164Z,7084.00
2022-12-15T09:36:40.004Z,6924.00
2022-12-15T09:37:39.942Z,6988.00
2022-12-15T09:38:40.111Z,7044.00
2022-12-15T09:39:39.978Z,6888.00
2022-12-15T09:40:39.948Z,6812.00
2022-12-15T09:41:39.668Z,6764.00
2022-12-15T09:42:39.638Z,6632.00
2022-12-15T09:43:46.053Z,6664.00
2022-12-15T09:44:39.499Z,6564.00
2022-12-15T09:45:39.578Z,6512.00
2022-12-15T09:46:40.030Z,6224.00
2022-12-15T09:47:39.334Z,5816.00
2022-12-15T09:48:39.264Z,4272.00
2022-12-15T09:49:39.213Z,5788.00
2022-12-15T09:50:39.137Z,5932.00
2022-12-15T09:51:39.018Z,6276.00
2022-12-15T09:52:38.980Z,6324.00
2022-12-15T09:53:54.688Z,6200.00
2022-12-15T09:54:38.903Z,6220.00
2022-12-15T09:55:38.770Z,5968.00
2022-12-15T09:56:38.679Z,6180.00
2022-12-15T09:57:38.611Z,5988.00
2022-12-15T09:58:38.721Z,6084.00
2022-12-15T09:59:38.516Z,6360.00
2022-12-15T10:00:38.796Z,6812.00
2022-12-15T10:01:38.418Z,3636.00
2022-12-15T10:02:38.504Z,2852.00
2022-12-15T10:03:39.263Z,2524.00
2022-12-15T10:04:38.179Z,2376.00
2022-12-15T10:06:06.841Z,2080.00
2022-12-15T10:06:38.025Z,1928.00
2022-12-15T10:07:38.133Z,1920.00
2022-12-15T10:08:37.980Z,1820.00
2022-12-15T10:09:37.958Z,1756.00
2022-12-15T10:10:37.768Z,1756.00
2022-12-15T10:11:37.763Z,1748.00
2022-12-15T10:12:37.770Z,1776.00
2022-12-15T10:13:37.586Z,1760.00
2022-12-15T10:14:37.532Z,1824.00
2022-12-15T10:15:37.502Z,1932.00
2022-12-15T10:16:37.534Z,2040.00
2022-12-15T10:17:37.400Z,2148.00
2022-12-15T10:18:37.328Z,2240.00
2022-12-15T10:19:37.150Z,2300.00
2022-12-15T10:20:37.110Z,2164.00
2022-12-15T10:21:37.002Z,2828.00
2022-12-15T10:22:36.986Z,5260.00
2022-12-15T10:23:37.213Z,3420.00
2022-12-15T10:25:08.572Z,2948.00
2022-12-15T10:25:36.748Z,2344.00
2022-12-15T10:26:36.702Z,2576.00
2022-12-15T10:27:36.591Z,2568.00
2022-12-15T10:28:36.542Z,2412.00
2022-12-15T10:29:36.628Z,2160.00
2022-12-15T10:30:36.511Z,2012.00
2022-12-15T10:31:36.429Z,1804.00
2022-12-15T10:32:42.444Z,1748.00
2022-12-15T10:33:36.345Z,1764.00
2022-12-15T10:34:36.268Z,1776.00
2022-12-15T10:35:36.144Z,1908.00
2022-12-15T10:36:36.081Z,2716.00
2022-12-15T10:37:35.901Z,2624.00
2022-12-15T10:38:35.840Z,2848.00
2022-12-15T10:39:35.894Z,2636.00
2022-12-15T10:40:35.754Z,2340.00
2022-12-15T10:41:35.733Z,2224.00
2022-12-15T10:42:35.657Z,2204.00
2022-12-15T10:43:36.222Z,2156.00
2022-12-15T10:44:35.578Z,2128.00
2022-12-15T10:45:35.433Z,2264.00
2022-12-15T10:46:35.326Z,2812.00
2022-12-15T10:47:35.243Z,3012.00
2022-12-15T10:48:35.391Z,3200.00
2022-12-15T10:49:35.236Z,2864.00
2022-12-15T10:50:35.007Z,2660.00
2022-12-15T10:51:34.944Z,2368.00
2022-12-15T10:52:34.880Z,2480.00
2022-12-15T10:53:35.095Z,3484.00
2022-12-15T10:54:34.723Z,3296.00
2022-12-15T10:55:34.678Z,3456.00
2022-12-15T10:56:34.696Z,3020.00
2022-12-15T10:57:34.691Z,2392.00
2022-12-15T10:58:34.435Z,2260.00
2022-12-15T10:59:34.420Z,2536.00
2022-12-15T11:00:34.326Z,3328.00
2022-12-15T11:01:34.475Z,3772.00
2022-12-15T11:02:34.651Z,2620.00
2022-12-15T11:03:34.564Z,2588.00
2022-12-15T11:04:34.103Z,3344.00
2022-12-15T11:05:33.964Z,2944.00
2022-12-15T11:06:33.953Z,3688.00
2022-12-15T11:07:33.840Z,3064.00
2022-12-15T11:08:33.848Z,2292.00
2022-12-15T11:09:33.709Z,2208.00
2022-12-15T11:10:33.621Z,2160.00
2022-12-15T11:11:33.582Z,2168.00
2022-12-15T11:12:33.470Z,2068.00
2022-12-15T11:13:35.239Z,2124.00
2022-12-15T11:14:33.329Z,2016.00
2022-12-15T11:15:33.312Z,1956.00
2022-12-15T11:16:33.392Z,1920.00
2022-12-15T11:17:33.209Z,1876.00
2022-12-15T11:18:33.030Z,1844.00
2022-12-15T11:19:32.991Z,1836.00
2022-12-15T11:20:32.901Z,1856.00
2022-12-15T11:21:33.248Z,1892.00
2022-12-15T11:22:32.762Z,1904.00
2022-12-15T11:23:33.159Z,1880.00
2022-12-15T11:24:32.713Z,1840.00
2022-12-15T11:25:32.837Z,1804.00
2022-12-15T11:26:32.506Z,1772.00
2022-12-15T11:27:32.430Z,1776.00
2022-12-15T11:28:32.349Z,1764.00
2022-12-15T11:29:32.286Z,1752.00
2022-12-15T11:30:32.229Z,1732.00
2022-12-15T11:31:32.126Z,1696.00
2022-12-15T11:32:32.072Z,1644.00
2022-12-15T11:33:32.498Z,1624.00
2022-12-15T11:34:31.990Z,1620.00
2022-12-15T11:35:31.949Z,1600.00
2022-12-15T11:36:31.813Z,1640.00
2022-12-15T11:37:36.301Z,1632.00
2022-12-15T11:38:31.701Z,1632.00
2022-12-15T11:39:31.582Z,1660.00
2022-12-15T11:40:31.485Z,1620.00
2022-12-15T11:41:31.476Z,1628.00
2022-12-15T11:42:31.333Z,1640.00
2022-12-15T11:43:31.855Z,1668.00
2022-12-15T11:44:31.194Z,1668.00
2022-12-15T11:45:31.143Z,1628.00
2022-12-15T11:46:31.093Z,1596.00
2022-12-15T11:47:30.989Z,1592.00
2022-12-15T11:48:30.940Z,1584.00
2022-12-15T11:49:31.180Z,1604.00
2022-12-15T11:50:30.814Z,1652.00
2022-12-15T11:51:30.792Z,1656.00
2022-12-15T11:52:30.791Z,1600.00
2022-12-15T11:53:31.179Z,1628.00
2022-12-15T11:54:30.702Z,1684.00
2022-12-15T11:55:34.397Z,1720.00
2022-12-15T11:56:30.510Z,1688.00
2022-12-15T11:57:30.269Z,1628.00
2022-12-15T11:58:30.498Z,1620.00
2022-12-15T11:59:30.161Z,1628.00
2022-12-15T12:00:30.088Z,1656.00
2022-12-15T12:01:30.312Z,1704.00
2022-12-15T12:02:30.026Z,1712.00
2022-12-15T12:03:29.885Z,1708.00
2022-12-15T12:04:29.778Z,1696.00
2022-12-15T12:05:29.765Z,1712.00
2022-12-15T12:06:29.677Z,1804.00
2022-12-15T12:07:29.687Z,1936.00
2022-12-15T12:08:29.991Z,2036.00
2022-12-15T12:09:29.438Z,2200.00
2022-12-15T12:10:29.553Z,2400.00
2022-12-15T12:11:29.383Z,2324.00
2022-12-15T12:12:29.230Z,2268.00
2022-12-15T12:13:29.239Z,2180.00
2022-12-15T12:14:29.286Z,2004.00
2022-12-15T12:15:29.025Z,1860.00
2022-12-15T12:16:28.931Z,1844.00
2022-12-15T12:17:28.879Z,1828.00
2022-12-15T12:18:29.353Z,1836.00
2022-12-15T12:19:28.788Z,1836.00
2022-12-15T12:20:28.657Z,1816.00
2022-12-15T12:21:28.599Z,1804.00
2022-12-15T12:22:28.494Z,1796.00
2022-12-15T12:23:28.486Z,1792.00
2022-12-15T12:24:28.321Z,1784.00
2022-12-15T12:25:28.306Z,1784.00
2022-12-15T12:26:28.409Z,1764.00
2022-12-15T12:27:28.153Z,1772.00
2022-12-15T12:28:28.140Z,1756.00
2022-12-15T12:29:27.981Z,1760.00
2022-12-15T12:30:27.930Z,1748.00
2022-12-15T12:31:27.858Z,1740.00
2022-12-15T12:32:27.874Z,1748.00
2022-12-15T12:33:27.688Z,1740.00
2022-12-15T12:34:27.804Z,1732.00
2022-12-15T12:35:31.937Z,1724.00
2022-12-15T12:36:27.500Z,1732.00
2022-12-15T12:37:27.396Z,1720.00
2022-12-15T12:38:27.449Z,1720.00
2022-12-15T12:39:27.324Z,1708.00
2022-12-15T12:40:27.232Z,1704.00
2022-12-15T12:41:27.115Z,1708.00
2022-12-15T12:42:27.077Z,1692.00
2022-12-15T12:43:26.971Z,1688.00
2022-12-15T12:44:26.971Z,1684.00
2022-12-15T12:45:26.959Z,1668.00
2022-12-15T12:46:26.806Z,1676.00
2022-12-15T12:47:26.718Z,1668.00